Time;durP1;ratioP1;P1;durP2;ratioP2;P2;SDS_P1;SDS_P2;PMS_P1;PMS_P2;Temp;Humidity;BMP_temperature;BMP_pressure;BME280_temperature;BME280_humidity;BME280_pressure;Samples;Min_cycle;Max_cycle;Signal;HPM_P1;HPM_P2
2020/12/14 00:01:17;;;;;;;50.93;27.57;;;8.90;1.00;;;;;;5054154;28;20572;-63
2020/12/14 00:03:43;;;;;;;43.30;26.63;;;8.90;1.00;;;;;;5048069;28;20193;-55
2020/12/14 00:06:08;;;;;;;41.90;27.03;;;8.90;1.00;;;;;;5053102;28;20192;-55
2020/12/14 00:08:34;;;;;;;40.47;25.67;;;8.90;1.00;;;;;;5053933;28;20195;-56
2020/12/14 00:10:59;;;;;;;42.80;25.40;;;8.90;1.00;;;;;;5053310;28;20246;-56
2020/12/14 00:13:25;;;;;;;38.90;25.07;;;9.00;1.00;;;;;;5052881;28;20190;-64
2020/12/14 00:15:50;;;;;;;38.10;26.60;;;9.00;1.00;;;;;;5068811;28;20707;-64
2020/12/14 00:18:16;;;;;;;40.63;24.20;;;8.90;1.00;;;;;;5053126;28;20188;-56
2020/12/14 00:20:42;;;;;;;42.97;24.50;;;8.90;1.00;;;;;;5055090;28;20573;-64
2020/12/14 00:23:07;;;;;;;42.37;25.33;;;8.80;1.00;;;;;;5054111;28;20317;-56
2020/12/14 00:25:33;;;;;;;42.00;25.60;;;8.80;1.00;;;;;;5052369;28;20237;-56
2020/12/14 00:27:58;;;;;;;44.63;27.27;;;8.80;1.00;;;;;;5053535;28;20183;-56
2020/12/14 00:30:24;;;;;;;46.57;26.33;;;8.80;1.00;;;;;;5052761;28;20187;-63
2020/12/14 00:32:50;;;;;;;39.33;23.80;;;8.80;1.00;;;;;;5053580;28;20200;-63
2020/12/14 00:35:16;;;;;;;38.43;25.10;;;8.80;1.00;;;;;;5053323;28;20258;-56
2020/12/14 00:37:42;;;;;;;43.07;26.30;;;8.80;1.00;;;;;;5052241;28;21146;-63
2020/12/14 00:40:07;;;;;;;36.07;23.90;;;8.80;1.00;;;;;;5054272;28;20199;-56
2020/12/14 00:42:33;;;;;;;40.03;25.93;;;8.70;1.00;;;;;;5053370;28;20241;-56
2020/12/14 00:44:58;;;;;;;34.07;23.80;;;8.70;1.00;;;;;;5053478;28;20255;-65
2020/12/14 00:47:24;;;;;;;40.00;24.73;;;8.70;1.00;;;;;;5054135;28;20251;-56
2020/12/14 00:49:50;;;;;;;35.03;23.60;;;8.70;1.00;;;;;;5053449;28;20192;-63
2020/12/14 00:52:15;;;;;;;36.80;23.23;;;8.70;1.00;;;;;;5053934;28;20195;-63
2020/12/14 00:54:41;;;;;;;41.80;24.50;;;8.60;1.00;;;;;;5053033;28;20191;-56
2020/12/14 00:57:07;;;;;;;37.40;24.10;;;8.50;1.00;;;;;;5069589;28;20204;-56
2020/12/14 00:59:32;;;;;;;35.13;23.67;;;8.40;1.00;;;;;;5052915;28;20184;-63
2020/12/14 01:01:58;;;;;;;40.00;25.90;;;8.40;1.00;;;;;;5051942;28;20457;-63
2020/12/14 01:04:24;;;;;;;39.60;24.10;;;9.70;1.00;;;;;;5052542;28;20238;-56
2020/12/14 01:06:53;;;;;;;43.77;24.93;;;8.20;1.00;;;;;;5053699;28;20270;-63
2020/12/14 01:09:19;;;;;;;36.63;24.47;;;8.00;1.00;;;;;;5052936;28;20498;-57
2020/12/14 01:11:45;;;;;;;36.60;23.17;;;7.90;1.00;;;;;;5053205;28;20465;-57
2020/12/14 01:14:11;;;;;;;40.50;23.50;;;7.90;1.00;;;;;;5053404;28;21008;-63
2020/12/14 01:16:36;;;;;;;39.77;24.10;;;7.80;1.00;;;;;;5053114;28;20287;-56
2020/12/14 01:19:03;;;;;;;41.83;23.77;;;7.70;1.00;;;;;;5053269;28;20172;-57
2020/12/14 01:21:29;;;;;;;35.60;22.47;;;7.70;1.00;;;;;;5053723;28;20179;-64
2020/12/14 01:23:55;;;;;;;39.80;22.90;;;7.60;1.00;;;;;;5052137;28;20450;-55
2020/12/14 01:26:20;;;;;;;39.73;23.47;;;7.60;1.00;;;;;;5052713;28;20195;-57
2020/12/14 01:28:46;;;;;;;41.60;24.97;;;7.60;1.00;;;;;;5052822;28;20222;-55
2020/12/14 01:31:11;;;;;;;40.17;23.80;;;7.60;1.00;;;;;;5051820;28;20184;-55
2020/12/14 01:33:37;;;;;;;38.10;24.40;;;7.60;1.00;;;;;;5052418;28;20632;-56
2020/12/14 01:36:03;;;;;;;40.70;24.97;;;7.60;1.00;;;;;;5051946;28;20208;-63
2020/12/14 01:38:29;;;;;;;40.27;24.90;;;7.50;1.00;;;;;;5053407;28;20260;-63
2020/12/14 01:40:54;;;;;;;44.17;23.20;;;7.40;1.00;;;;;;5051332;28;20195;-64
2020/12/14 01:43:22;;;;;;;37.13;24.47;;;7.40;1.00;;;;;;5052790;28;20625;-55
2020/12/14 01:45:51;;;;;;;42.60;25.43;;;7.40;1.00;;;;;;5051192;28;20227;-55
2020/12/14 01:48:17;;;;;;;40.90;25.40;;;7.40;1.00;;;;;;5051317;28;20529;-63
2020/12/14 01:50:43;;;;;;;40.70;24.93;;;7.30;1.00;;;;;;5052579;28;20943;-56
2020/12/14 01:53:11;;;;;;;45.63;24.90;;;7.30;1.00;;;;;;5052266;28;20446;-63
2020/12/14 01:55:41;;;;;;;46.13;25.60;;;7.20;1.00;;;;;;5050484;28;20625;-57
2020/12/14 01:58:07;;;;;;;42.57;27.20;;;7.30;1.00;;;;;;5052905;28;20426;-64
2020/12/14 02:00:33;;;;;;;43.03;24.70;;;7.20;1.00;;;;;;5054318;28;20501;-57
2020/12/14 02:02:58;;;;;;;39.63;24.50;;;7.20;1.00;;;;;;5058761;28;20438;-64
2020/12/14 02:05:24;;;;;;;43.20;26.53;;;7.20;1.00;;;;;;5059422;28;20180;-64
2020/12/14 02:07:49;;;;;;;50.43;27.57;;;7.10;1.00;;;;;;5059309;28;20179;-56
2020/12/14 02:10:15;;;;;;;38.27;25.33;;;7.00;1.00;;;;;;5058699;28;20187;-64
2020/12/14 02:12:42;;;;;;;41.97;24.30;;;7.00;1.00;;;;;;5058326;28;20179;-64
2020/12/14 02:15:07;;;;;;;37.00;23.37;;;7.00;1.00;;;;;;5058640;28;20249;-64
2020/12/14 02:17:33;;;;;;;44.63;27.17;;;7.00;1.00;;;;;;5058578;28;20540;-56
2020/12/14 02:19:59;;;;;;;42.33;23.77;;;7.00;1.00;;;;;;5058186;28;20176;-56
2020/12/14 02:22:26;;;;;;;36.37;21.97;;;7.00;7.80;;;;;;5059590;28;20215;-56
2020/12/14 02:25:06;;;;;;;42.27;25.00;;;7.00;12.90;;;;;;5059430;28;20172;-64
2020/12/14 02:27:33;;;;;;;41.97;24.67;;;6.90;15.00;;;;;;5058292;28;20998;-56
2020/12/14 02:29:59;;;;;;;47.10;24.13;;;6.90;21.60;;;;;;5057237;28;20898;-63
2020/12/14 02:32:27;;;;;;;43.33;26.03;;;6.90;23.00;;;;;;5074239;28;20437;-63
2020/12/14 02:34:54;;;;;;;43.20;25.63;;;6.90;24.30;;;;;;5058277;28;20176;-62
2020/12/14 02:37:25;;;;;;;41.30;24.83;;;6.80;30.40;;;;;;5074474;28;20453;-63
2020/12/14 02:39:51;;;;;;;43.23;26.10;;;6.80;33.40;;;;;;5058337;28;20503;-56
2020/12/14 02:42:18;;;;;;;40.40;23.03;;;6.70;76.50;;;;;;5057014;28;20457;-63
2020/12/14 02:44:45;;;;;;;45.17;26.37;;;6.70;85.70;;;;;;5058023;28;20176;-63
2020/12/14 02:47:11;;;;;;;42.10;25.60;;;6.70;95.40;;;;;;5058667;28;20462;-56
2020/12/14 02:49:37;;;;;;;34.50;21.40;;;6.70;99.90;;;;;;5058753;28;20431;-63
2020/12/14 02:52:07;;;;;;;45.47;24.30;;;6.60;99.90;;;;;;5059418;28;20434;-56
2020/12/14 02:54:33;;;;;;;44.57;26.10;;;6.60;99.90;;;;;;5058164;28;20970;-64
2020/12/14 02:56:59;;;;;;;39.73;22.50;;;6.60;99.90;;;;;;5056717;28;20549;-64
2020/12/14 02:59:25;;;;;;;41.93;24.40;;;6.50;99.90;;;;;;5057036;28;20533;-63
2020/12/14 03:01:51;;;;;;;38.77;23.93;;;6.50;99.90;;;;;;5057290;28;20551;-62
2020/12/14 03:04:17;;;;;;;44.77;26.27;;;6.50;99.90;;;;;;5058075;28;20179;-56
2020/12/14 03:06:44;;;;;;;40.30;22.00;;;6.50;99.90;;;;;;5057470;28;20238;-56
2020/12/14 03:09:11;;;;;;;38.83;22.60;;;6.50;99.90;;;;;;5058084;28;20462;-61
2020/12/14 03:11:38;;;;;;;37.80;22.83;;;6.40;99.90;;;;;;5055286;28;20517;-61
2020/12/14 03:14:04;;;;;;;39.23;22.60;;;6.40;99.90;;;;;;5055505;28;20464;-63
2020/12/14 03:16:30;;;;;;;38.30;24.33;;;6.40;99.90;;;;;;5069032;28;20457;-61
2020/12/14 03:18:56;;;;;;;44.20;23.57;;;6.40;99.90;;;;;;5054915;28;20529;-58
2020/12/14 03:21:21;;;;;;;40.97;23.00;;;6.50;99.90;;;;;;5053952;28;20285;-55
2020/12/14 03:23:47;;;;;;;42.60;24.07;;;6.50;99.90;;;;;;5055184;28;20568;-62
2020/12/14 03:26:16;;;;;;;37.33;21.80;;;8.00;99.90;;;;;;5053914;28;20808;-62
2020/12/14 03:28:42;;;;;;;39.23;22.83;;;6.50;99.90;;;;;;5055844;28;20176;-63
2020/12/14 03:31:09;;;;;;;46.67;23.50;;;6.50;99.90;;;;;;5055907;28;20434;-63
2020/12/14 03:33:35;;;;;;;43.73;24.53;;;6.50;99.90;;;;;;5055899;28;20438;-64
2020/12/14 03:36:00;;;;;;;40.27;22.73;;;6.50;99.90;;;;;;5055849;28;20454;-63
2020/12/14 03:38:26;;;;;;;40.73;23.30;;;6.50;99.90;;;;;;5055428;28;20522;-63
2020/12/14 03:40:52;;;;;;;37.10;22.90;;;6.40;99.90;;;;;;5054433;28;20263;-55
2020/12/14 03:43:17;;;;;;;38.23;21.17;;;6.20;99.90;;;;;;5054442;28;20652;-55
2020/12/14 03:45:43;;;;;;;42.37;24.30;;;6.10;99.90;;;;;;5054895;28;20217;-55
2020/12/14 03:48:09;;;;;;;30.30;20.43;;;6.10;99.90;;;;;;5054910;28;20176;-62
2020/12/14 03:50:34;;;;;;;35.17;20.03;;;6.10;99.90;;;;;;5054539;28;20176;-63
2020/12/14 03:53:00;;;;;;;34.03;21.70;;;6.10;99.90;;;;;;5054942;28;20172;-63
2020/12/14 03:55:25;;;;;;;32.40;20.07;;;6.20;99.90;;;;;;5055645;28;20169;-56
2020/12/14 03:57:51;;;;;;;36.20;20.47;;;6.20;99.90;;;;;;5055588;28;20188;-56
2020/12/14 04:00:17;;;;;;;33.83;20.20;;;6.20;99.90;;;;;;5070864;28;20175;-63
2020/12/14 04:02:43;;;;;;;31.87;18.67;;;6.20;99.90;;;;;;5054717;28;20174;-55
2020/12/14 04:05:09;;;;;;;38.53;20.67;;;6.20;99.90;;;;;;5054201;28;20188;-56
2020/12/14 04:07:34;;;;;;;38.57;21.07;;;6.20;99.90;;;;;;5068907;28;20749;-56
2020/12/14 04:10:00;;;;;;;34.17;18.47;;;6.20;99.90;;;;;;5053552;28;20179;-56
2020/12/14 04:12:26;;;;;;;36.50;19.40;;;6.30;99.90;;;;;;5069098;28;20176;-63
2020/12/14 04:14:51;;;;;;;28.80;18.57;;;6.20;99.90;;;;;;5054130;28;20172;-63
2020/12/14 04:17:17;;;;;;;35.37;20.27;;;6.30;99.90;;;;;;5055495;28;20210;-56
2020/12/14 04:19:42;;;;;;;35.77;20.43;;;6.30;99.90;;;;;;5055112;28;20517;-62
2020/12/14 04:22:09;;;;;;;36.17;20.00;;;6.30;99.90;;;;;;5054355;28;20172;-62
2020/12/14 04:24:35;;;;;;;30.80;18.70;;;6.30;99.90;;;;;;5054490;28;20180;-63
2020/12/14 04:27:03;;;;;;;37.27;20.47;;;6.30;99.90;;;;;;5054934;28;20431;-55
2020/12/14 04:29:28;;;;;;;30.23;19.17;;;6.40;99.90;;;;;;5054165;28;20434;-56
2020/12/14 04:31:54;;;;;;;37.53;19.00;;;6.40;99.90;;;;;;5054170;28;20938;-64
2020/12/14 04:34:20;;;;;;;33.90;19.70;;;6.50;99.90;;;;;;5053841;28;20191;-56
2020/12/14 04:36:46;;;;;;;35.50;19.97;;;6.50;99.90;;;;;;5054421;28;20200;-56
2020/12/14 04:39:12;;;;;;;29.37;17.87;;;6.50;99.90;;;;;;5053641;28;20418;-63
2020/12/14 04:41:38;;;;;;;31.17;18.67;;;6.50;99.90;;;;;;5045771;28;20435;-56
2020/12/14 04:44:05;;;;;;;30.33;18.33;;;6.50;99.90;;;;;;5052446;28;20439;-64
2020/12/14 04:46:34;;;;;;;32.57;18.70;;;6.40;99.90;;;;;;5053770;28;20884;-63
2020/12/14 04:49:07;;;;;;;32.23;18.63;;;6.40;99.90;;;;;;5053591;28;20439;-56
2020/12/14 04:51:36;;;;;;;31.20;18.60;;;6.30;99.90;;;;;;5054180;28;20449;-64
2020/12/14 04:54:06;;;;;;;34.30;17.97;;;6.30;99.90;;;;;;5053231;28;20476;-56
2020/12/14 04:56:40;;;;;;;28.10;17.70;;;6.20;99.90;;;;;;5053534;28;20486;-56
2020/12/14 04:59:10;;;;;;;30.20;17.50;;;6.20;99.90;;;;;;5053273;28;20484;-56
2020/12/14 05:01:36;;;;;;;28.13;16.87;;;6.00;99.90;;;;;;5053700;28;20445;-56
2020/12/14 05:04:02;;;;;;;29.80;18.47;;;5.90;99.90;;;;;;5053673;28;20434;-64
2020/12/14 05:06:28;;;;;;;30.60;17.83;;;5.90;99.90;;;;;;5053841;28;20436;-55
2020/12/14 05:08:53;;;;;;;25.80;16.03;;;5.90;99.90;;;;;;5046379;28;20828;-62
2020/12/14 05:11:35;;;;;;;31.23;17.80;;;5.80;99.90;;;;;;5052951;28;20188;-63
2020/12/14 05:14:15;;;;;;;33.20;19.20;;;5.70;99.90;;;;;;5051794;28;20268;-63
2020/12/14 05:16:40;;;;;;;33.47;18.47;;;5.80;99.90;;;;;;5052836;28;20547;-63
2020/12/14 05:19:26;;;;;;;37.10;19.73;;;5.80;99.90;;;;;;5052286;28;20899;-63
2020/12/14 05:22:00;;;;;;;31.43;19.17;;;5.80;99.90;;;;;;5051586;28;20191;-60
2020/12/14 05:24:30;;;;;;;36.20;20.23;;;5.70;99.90;;;;;;5051277;28;20438;-62
2020/12/14 05:26:59;;;;;;;31.57;18.67;;;5.70;99.90;;;;;;5068858;28;20430;-56
2020/12/14 05:29:30;;;;;;;31.60;17.60;;;5.70;99.90;;;;;;5053401;28;20442;-56
2020/12/14 05:32:03;;;;;;;36.40;18.83;;;5.80;99.90;;;;;;5053283;28;20989;-56
2020/12/14 05:34:37;;;;;;;30.37;17.57;;;5.80;99.90;;;;;;5052974;28;20444;-63
2020/12/14 05:37:07;;;;;;;29.57;17.33;;;5.80;99.90;;;;;;5052876;28;20476;-64
2020/12/14 05:39:35;;;;;;;31.83;19.50;;;5.80;99.90;;;;;;5053525;28;20430;-56
2020/12/14 05:42:39;;;;;;;30.93;17.43;;;5.80;99.90;;;;;;5052597;28;20435;-56
2020/12/14 05:45:11;;;;;;;33.50;18.07;;;5.80;99.90;;;;;;5037268;28;20552;-64
2020/12/14 05:47:36;;;;;;;27.17;17.27;;;5.90;99.90;;;;;;5052384;28;20478;-64
2020/12/14 05:50:08;;;;;;;29.07;16.33;;;5.80;99.90;;;;;;5052131;28;20434;-56
2020/12/14 05:52:39;;;;;;;31.33;18.20;;;5.90;99.90;;;;;;5052348;28;20237;-55
2020/12/14 05:55:04;;;;;;;29.83;18.23;;;5.90;99.90;;;;;;5052874;28;20430;-64
2020/12/14 05:57:37;;;;;;;28.40;16.33;;;6.00;99.90;;;;;;5053662;28;20460;-64
2020/12/14 06:00:09;;;;;;;27.30;15.67;;;6.00;99.90;;;;;;5053242;28;20172;-56
2020/12/14 06:02:35;;;;;;;26.90;16.97;;;5.90;99.90;;;;;;5046556;28;20438;-63
2020/12/14 06:05:04;;;;;;;23.70;15.40;;;5.90;99.90;;;;;;5051670;28;20426;-64
2020/12/14 06:07:34;;;;;;;25.50;14.83;;;6.00;99.90;;;;;;5053511;28;20903;-66
2020/12/14 06:10:15;;;;;;;26.97;14.60;;;6.10;99.90;;;;;;5052827;28;20479;-58
2020/12/14 06:12:42;;;;;;;25.53;17.70;;;6.10;99.90;;;;;;5052675;28;20430;-63
2020/12/14 06:15:13;;;;;;;26.90;15.97;;;6.10;99.90;;;;;;5052606;28;20529;-55
2020/12/14 06:17:39;;;;;;;28.27;15.20;;;6.20;99.90;;;;;;5051749;28;20458;-56
2020/12/14 06:20:16;;;;;;;27.10;16.37;;;6.30;99.90;;;;;;5052620;28;20438;-65
2020/12/14 06:23:04;;;;;;;26.30;16.63;;;6.30;99.90;;;;;;5052759;28;20427;-62
2020/12/14 06:25:31;;;;;;;24.03;14.80;;;6.30;99.90;;;;;;5067586;28;20430;-64
2020/12/14 06:28:16;;;;;;;27.10;14.97;;;6.30;99.90;;;;;;5052986;28;20438;-57
2020/12/14 06:30:51;;;;;;;25.20;16.10;;;6.20;99.90;;;;;;5045837;28;20835;-57
2020/12/14 06:33:38;;;;;;;30.97;19.20;;;6.20;99.90;;;;;;5052425;28;20522;-56
2020/12/14 06:36:18;;;;;;;23.43;14.70;;;6.10;99.90;;;;;;5053196;28;20515;-64
2020/12/14 06:38:44;;;;;;;19.67;13.53;;;6.20;99.90;;;;;;5053145;28;20918;-57
2020/12/14 06:41:17;;;;;;;23.40;14.53;;;6.20;99.90;;;;;;5052135;28;20441;-56
2020/12/14 06:43:45;;;;;;;22.87;14.60;;;6.20;99.90;;;;;;5051687;28;20469;-57
2020/12/14 06:46:11;;;;;;;19.13;13.53;;;6.20;99.90;;;;;;5053017;28;20805;-56
2020/12/14 06:48:40;;;;;;;21.63;14.20;;;6.30;99.90;;;;;;5056001;28;20644;-56
2020/12/14 06:51:08;;;;;;;25.30;15.67;;;6.30;99.90;;;;;;5056230;28;20503;-58
2020/12/14 06:53:42;;;;;;;27.57;16.30;;;6.40;99.90;;;;;;5056029;28;20436;-63
2020/12/14 06:56:10;;;;;;;25.03;15.23;;;6.40;99.90;;;;;;5057193;28;20489;-57
2020/12/14 06:58:41;;;;;;;23.13;14.30;;;6.40;99.90;;;;;;5055955;28;20934;-56
2020/12/14 07:01:35;;;;;;;27.90;16.20;;;6.50;99.90;;;;;;5056276;28;20502;-56
2020/12/14 07:04:03;;;;;;;26.10;16.13;;;6.50;99.90;;;;;;5055863;28;20485;-56
2020/12/14 07:06:30;;;;;;;22.30;15.30;;;6.30;99.90;;;;;;5055814;28;20771;-62
2020/12/14 07:08:56;;;;;;;21.17;13.93;;;6.20;99.90;;;;;;5072036;28;20434;-57
2020/12/14 07:11:24;;;;;;;22.73;15.03;;;6.30;99.90;;;;;;5071193;28;20830;-59
2020/12/14 07:13:50;;;;;;;29.03;16.00;;;6.30;99.90;;;;;;5047583;28;20190;-57
2020/12/14 07:16:17;;;;;;;25.00;14.47;;;6.30;99.90;;;;;;5055485;28;20465;-57
2020/12/14 07:18:47;;;;;;;35.17;16.80;;;6.30;99.90;;;;;;5055994;28;20469;-63
2020/12/14 07:21:17;;;;;;;26.97;15.87;;;6.30;99.90;;;;;;5055444;28;20434;-57
2020/12/14 07:23:47;;;;;;;25.67;15.57;;;6.30;99.90;;;;;;5054693;28;20469;-64
2020/12/14 07:26:14;;;;;;;21.20;15.03;;;6.40;99.90;;;;;;5055840;28;20511;-63
2020/12/14 07:28:48;;;;;;;23.43;14.83;;;6.50;99.90;;;;;;5054032;28;20449;-57
2020/12/14 07:31:19;;;;;;;24.67;16.47;;;6.60;99.90;;;;;;5053362;28;20433;-57
2020/12/14 07:33:56;;;;;;;27.07;16.40;;;6.60;99.90;;;;;;5055790;28;20488;-63
2020/12/14 07:36:24;;;;;;;23.33;15.03;;;6.70;99.90;;;;;;5053849;28;20461;-62
2020/12/14 07:38:54;;;;;;;23.97;16.13;;;6.80;99.90;;;;;;5054813;28;20438;-63
2020/12/14 07:41:20;;;;;;;23.10;14.87;;;6.90;99.90;;;;;;5047689;28;20441;-63
2020/12/14 07:43:47;;;;;;;24.03;15.60;;;7.10;99.90;;;;;;5054421;28;20887;-62
2020/12/14 07:46:21;;;;;;;26.17;16.60;;;7.20;99.90;;;;;;5055290;28;20470;-63
2020/12/14 07:49:01;;;;;;;23.83;14.03;;;7.30;99.90;;;;;;5055066;28;20430;-62
2020/12/14 07:51:29;;;;;;;21.00;14.50;;;7.40;99.90;;;;;;5049114;28;20457;-56
2020/12/14 07:54:03;;;;;;;24.93;14.80;;;7.40;99.90;;;;;;5054810;28;20430;-63
2020/12/14 07:56:29;;;;;;;23.53;15.20;;;7.50;99.90;;;;;;5055292;28;20466;-56
2020/12/14 07:58:55;;;;;;;19.23;13.93;;;7.50;99.90;;;;;;5053772;28;20435;-65
2020/12/14 08:01:22;;;;;;;23.90;15.20;;;7.60;99.90;;;;;;5055341;28;20613;-57
2020/12/14 08:03:47;;;;;;;22.90;14.67;;;7.60;99.90;;;;;;5055583;28;20172;-56
2020/12/14 08:06:14;;;;;;;22.30;15.23;;;7.70;99.90;;;;;;5070441;28;20464;-64
2020/12/14 08:08:42;;;;;;;22.30;14.40;;;7.70;99.90;;;;;;5053778;28;20177;-56
2020/12/14 08:11:09;;;;;;;22.57;14.43;;;7.80;99.90;;;;;;5054133;28;20891;-55
2020/12/14 08:13:35;;;;;;;21.50;13.33;;;7.90;99.90;;;;;;5054621;28;20443;-56
2020/12/14 08:16:03;;;;;;;19.80;12.23;;;7.90;99.90;;;;;;5046019;28;20467;-56
2020/12/14 08:18:29;;;;;;;20.47;14.17;;;8.00;99.90;;;;;;5054463;28;20449;-55
2020/12/14 08:20:56;;;;;;;21.27;14.60;;;8.00;99.90;;;;;;5054813;28;20434;-64
2020/12/14 08:23:24;;;;;;;22.70;14.33;;;8.10;99.90;;;;;;5054258;28;20486;-63
2020/12/14 08:25:53;;;;;;;20.50;13.70;;;8.10;99.90;;;;;;5053386;28;20431;-64
2020/12/14 08:28:29;;;;;;;18.30;13.37;;;8.10;99.90;;;;;;5054518;28;20741;-66
2020/12/14 08:30:55;;;;;;;20.67;13.87;;;8.10;99.90;;;;;;5054574;28;20487;-63
2020/12/14 08:33:21;;;;;;;20.03;13.60;;;8.20;99.90;;;;;;5054405;28;20807;-66
2020/12/14 08:35:48;;;;;;;25.03;14.40;;;8.20;99.90;;;;;;5054300;28;20446;-65
2020/12/14 08:38:21;;;;;;;18.77;12.50;;;8.20;99.90;;;;;;5054903;28;20255;-65
2020/12/14 08:41:04;;;;;;;17.53;11.87;;;8.10;99.90;;;;;;5053650;28;20966;-66
2020/12/14 08:43:35;;;;;;;15.37;11.43;;;8.20;99.90;;;;;;5045842;28;20441;-66
2020/12/14 08:46:05;;;;;;;17.87;12.80;;;8.20;99.90;;;;;;5053031;28;21016;-65
2020/12/14 08:48:44;;;;;;;19.10;12.17;;;8.30;99.90;;;;;;5054010;28;20965;-67
2020/12/14 08:51:17;;;;;;;15.67;11.70;;;8.30;99.90;;;;;;5054755;28;20402;-67
2020/12/14 08:53:44;;;;;;;16.37;12.07;;;8.30;99.90;;;;;;5051647;28;20488;-67
2020/12/14 08:56:16;;;;;;;16.30;11.27;;;8.40;99.90;;;;;;5052816;28;20808;-66
2020/12/14 08:58:56;;;;;;;16.23;9.57;;;8.40;99.90;;;;;;5054036;28;20486;-67
2020/12/14 09:01:31;;;;;;;14.33;9.90;;;8.40;99.90;;;;;;5054469;28;20445;-65
2020/12/14 09:03:57;;;;;;;17.57;10.50;;;8.50;99.90;;;;;;5044733;28;20441;-68
2020/12/14 09:06:31;;;;;;;15.40;10.43;;;8.60;99.90;;;;;;5050937;28;20450;-67
2020/12/14 09:09:11;;;;;;;15.90;10.43;;;8.70;99.90;;;;;;5046633;28;20836;-67
2020/12/14 09:11:46;;;;;;;13.47;9.40;;;8.80;99.90;;;;;;5053517;28;20487;-68
2020/12/14 09:14:18;;;;;;;13.10;9.00;;;8.90;99.90;;;;;;5053667;28;20799;-68
2020/12/14 09:16:48;;;;;;;14.17;9.57;;;9.00;99.90;;;;;;5053671;28;20516;-56
2020/12/14 09:19:19;;;;;;;15.77;9.07;;;9.00;99.90;;;;;;5052943;28;20427;-56
2020/12/14 09:21:44;;;;;;;10.67;7.87;;;9.10;99.90;;;;;;5054103;28;20634;-56
2020/12/14 09:24:15;;;;;;;12.47;8.90;;;9.10;99.90;;;;;;5054093;28;20876;-56
2020/12/14 09:26:42;;;;;;;12.27;8.30;;;9.20;99.90;;;;;;5053685;28;20200;-56
2020/12/14 09:29:08;;;;;;;13.00;8.60;;;9.20;99.90;;;;;;5054098;28;20445;-56
2020/12/14 09:31:34;;;;;;;10.73;8.03;;;9.20;99.90;;;;;;5054044;28;20426;-56
2020/12/14 09:33:59;;;;;;;10.03;7.50;;;9.30;99.90;;;;;;5053969;28;20437;-55
2020/12/14 09:36:25;;;;;;;11.53;7.83;;;9.40;99.90;;;;;;5052907;28;20298;-56
2020/12/14 09:38:51;;;;;;;10.60;6.90;;;9.40;99.90;;;;;;5053576;28;20592;-56
2020/12/14 09:41:17;;;;;;;12.40;7.70;;;9.50;99.90;;;;;;5054319;28;20179;-55
2020/12/14 09:43:43;;;;;;;12.40;7.83;;;9.40;99.90;;;;;;5054154;28;20172;-65
2020/12/14 09:46:10;;;;;;;11.17;7.13;;;9.40;99.90;;;;;;5069835;28;20967;-66
2020/12/14 09:48:36;;;;;;;12.60;8.20;;;9.40;99.90;;;;;;5070327;28;20431;-65
2020/12/14 09:51:03;;;;;;;13.27;7.50;;;9.40;99.90;;;;;;5054278;28;20420;-65
2020/12/14 09:53:29;;;;;;;10.70;7.53;;;9.50;99.90;;;;;;5054325;28;20906;-66
2020/12/14 09:55:54;;;;;;;13.27;8.30;;;9.50;99.90;;;;;;5054123;28;20418;-56
2020/12/14 09:58:20;;;;;;;11.70;7.77;;;9.50;99.90;;;;;;5053230;28;20226;-56
2020/12/14 10:00:45;;;;;;;11.20;8.20;;;9.60;99.90;;;;;;5054160;28;20207;-64
2020/12/14 10:03:11;;;;;;;11.40;8.17;;;9.60;99.90;;;;;;5053664;28;20184;-56
2020/12/14 10:05:37;;;;;;;12.63;8.97;;;9.80;99.90;;;;;;5053587;28;20680;-64
2020/12/14 10:08:02;;;;;;;14.97;9.50;;;9.90;99.90;;;;;;5053558;28;20168;-65
2020/12/14 10:10:28;;;;;;;17.27;10.30;;;9.70;99.90;;;;;;5053355;28;20312;-55
2020/12/14 10:12:59;;;;;;;13.27;8.30;;;9.80;99.90;;;;;;5053310;28;20509;-56
2020/12/14 10:15:24;;;;;;;13.47;8.43;;;9.70;99.90;;;;;;5053404;28;20637;-57
2020/12/14 10:17:50;;;;;;;12.57;9.27;;;9.70;99.90;;;;;;5068140;28;20454;-65
2020/12/14 10:20:16;;;;;;;11.80;8.27;;;9.70;99.90;;;;;;5053512;28;20184;-56
2020/12/14 10:22:42;;;;;;;13.90;8.90;;;9.60;99.90;;;;;;5055511;28;20457;-56
2020/12/14 10:25:08;;;;;;;8.80;6.10;;;9.80;99.90;;;;;;5057519;28;20415;-66
2020/12/14 10:27:33;;;;;;;12.80;8.60;;;9.80;99.90;;;;;;5073783;28;20237;-65
2020/12/14 10:29:59;;;;;;;9.27;7.40;;;9.80;99.90;;;;;;5057988;28;20666;-66
2020/12/14 10:32:25;;;;;;;9.00;6.60;;;9.90;99.90;;;;;;5057817;28;20185;-66
2020/12/14 10:34:50;;;;;;;7.33;6.20;;;10.00;99.90;;;;;;5057757;28;20238;-66
2020/12/14 10:37:16;;;;;;;8.10;6.73;;;10.00;99.90;;;;;;5072721;28;20260;-65
2020/12/14 10:39:43;;;;;;;9.93;6.77;;;10.10;99.90;;;;;;5057708;28;20264;-66
2020/12/14 10:42:09;;;;;;;7.07;5.53;;;10.10;99.90;;;;;;5057788;28;20617;-65
2020/12/14 10:44:34;;;;;;;11.00;5.50;;;10.20;99.90;;;;;;5057704;28;20469;-65
2020/12/14 10:47:04;;;;;;;8.87;5.30;;;10.20;99.90;;;;;;5056577;28;20311;-65
2020/12/14 10:49:31;;;;;;;8.10;6.43;;;10.30;99.90;;;;;;5057596;28;20634;-64
2020/12/14 10:51:57;;;;;;;7.67;6.00;;;10.20;99.90;;;;;;5057477;28;20584;-65
2020/12/14 10:54:23;;;;;;;5.73;5.13;;;10.30;99.90;;;;;;5057473;28;20422;-65
2020/12/14 10:56:49;;;;;;;7.10;5.20;;;10.40;99.90;;;;;;5057083;28;20780;-65
2020/12/14 10:59:14;;;;;;;5.20;4.70;;;10.40;99.90;;;;;;5057357;28;20619;-65
2020/12/14 11:01:40;;;;;;;8.50;5.63;;;10.40;99.90;;;;;;5057088;28;20184;-65
2020/12/14 11:04:05;;;;;;;6.30;5.00;;;10.60;99.90;;;;;;5056553;28;20223;-65
2020/12/14 11:06:32;;;;;;;6.77;4.87;;;10.60;99.90;;;;;;5057479;28;20182;-67
2020/12/14 11:08:58;;;;;;;8.10;5.73;;;10.60;84.20;;;;;;5057919;28;20196;-65
2020/12/14 11:11:24;;;;;;;10.07;6.90;;;10.60;68.70;;;;;;5056664;28;20436;-66
2020/12/14 11:13:50;;;;;;;10.50;6.30;;;10.70;57.00;;;;;;5058358;28;20468;-67
2020/12/14 11:16:16;;;;;;;8.97;6.80;;;10.80;42.90;;;;;;5057666;28;20197;-67
2020/12/14 11:18:42;;;;;;;8.30;6.80;;;10.80;24.50;;;;;;5057142;28;20178;-66
2020/12/14 11:21:07;;;;;;;11.93;7.00;;;10.80;9.10;;;;;;5055969;28;20484;-66
2020/12/14 11:23:33;;;;;;;10.53;7.30;;;10.90;1.00;;;;;;5055489;28;20484;-66
2020/12/14 11:25:59;;;;;;;9.50;7.27;;;10.80;1.00;;;;;;5056133;28;20180;-65
2020/12/14 11:28:27;;;;;;;9.37;7.87;;;10.80;1.00;;;;;;5056375;28;20234;-66
2020/12/14 11:30:52;;;;;;;13.93;9.00;;;10.80;1.00;;;;;;5056372;28;20542;-65
2020/12/14 11:33:18;;;;;;;11.17;8.70;;;10.90;1.00;;;;;;5055180;28;20510;-65
2020/12/14 11:35:43;;;;;;;10.90;9.13;;;10.80;1.00;;;;;;5056224;28;20232;-66
2020/12/14 11:38:09;;;;;;;12.83;9.20;;;10.70;1.00;;;;;;5056150;28;20693;-57
2020/12/14 11:40:35;;;;;;;13.80;10.13;;;10.60;1.00;;;;;;5071885;28;20249;-64
2020/12/14 11:43:00;;;;;;;11.90;10.10;;;10.70;1.00;;;;;;5056078;28;20257;-65
2020/12/14 11:45:27;;;;;;;11.00;8.50;;;10.80;1.00;;;;;;5055340;28;20190;-64
2020/12/14 11:47:54;;;;;;;12.37;8.73;;;10.70;1.00;;;;;;5055905;28;20506;-56
2020/12/14 11:50:20;;;;;;;12.57;8.80;;;10.70;1.00;;;;;;5054921;28;20784;-64
2020/12/14 11:52:46;;;;;;;11.37;8.70;;;10.80;1.00;;;;;;5055948;28;20435;-67
2020/12/14 11:55:13;;;;;;;15.50;9.80;;;10.70;1.00;;;;;;5055801;28;20900;-66
2020/12/14 11:57:38;;;;;;;12.47;9.63;;;10.80;1.00;;;;;;5055738;28;20518;-65
2020/12/14 12:00:09;;;;;;;12.43;8.90;;;10.80;1.00;;;;;;5055807;28;20455;-58
2020/12/14 12:02:35;;;;;;;11.33;9.17;;;10.70;1.00;;;;;;5055879;28;20201;-56
2020/12/14 12:05:01;;;;;;;13.00;10.23;;;10.60;1.00;;;;;;5055375;28;20439;-65
2020/12/14 12:07:26;;;;;;;14.73;10.60;;;10.50;1.00;;;;;;5055777;28;20653;-65
2020/12/14 12:09:52;;;;;;;14.53;9.53;;;10.40;1.00;;;;;;5055765;28;20519;-66
2020/12/14 12:12:18;;;;;;;14.03;9.70;;;10.50;1.00;;;;;;5071371;28;20199;-65
2020/12/14 12:14:44;;;;;;;17.80;11.53;;;10.60;1.00;;;;;;5071335;28;20426;-65
2020/12/14 12:17:09;;;;;;;13.13;9.70;;;10.50;1.00;;;;;;5055582;28;20200;-65
2020/12/14 12:19:35;;;;;;;14.93;10.70;;;10.50;1.00;;;;;;5055513;28;20255;-65
2020/12/14 12:22:01;;;;;;;16.53;10.70;;;10.40;1.00;;;;;;5055492;28;20184;-65
2020/12/14 12:24:27;;;;;;;13.63;9.63;;;10.50;1.00;;;;;;5055227;28;20160;-65
2020/12/14 12:26:53;;;;;;;14.70;10.00;;;10.50;1.00;;;;;;5055318;28;20910;-56
2020/12/14 12:29:19;;;;;;;14.03;10.80;;;10.50;1.00;;;;;;5055360;28;20426;-66
2020/12/14 12:31:51;;;;;;;17.40;10.80;;;10.50;1.00;;;;;;5055374;28;20878;-66
2020/12/14 12:34:17;;;;;;;14.60;9.60;;;10.40;1.00;;;;;;5055243;28;20488;-57
2020/12/14 12:36:51;;;;;;;15.70;10.20;;;10.40;1.00;;;;;;5055024;28;21171;-59
2020/12/14 12:39:17;;;;;;;13.47;9.80;;;10.50;1.00;;;;;;5054203;28;20188;-65
2020/12/14 12:41:51;;;;;;;16.80;9.63;;;10.40;1.00;;;;;;5055243;28;20415;-67
2020/12/14 12:44:18;;;;;;;14.50;9.80;;;10.40;1.00;;;;;;5054245;28;20611;-56